createdAt,value
2017-11-19T00:00:42.856Z,0.00
2017-11-19T00:01:42.835Z,0.00
2017-11-19T00:02:42.776Z,0.00
2017-11-19T00:03:42.733Z,0.00
2017-11-19T00:04:42.688Z,0.00
2017-11-19T00:05:42.648Z,0.00
2017-11-19T00:06:42.617Z,0.00
2017-11-19T00:07:42.572Z,0.00
2017-11-19T00:08:42.556Z,0.00
2017-11-19T00:09:42.493Z,0.00
2017-11-19T00:10:42.446Z,0.00
2017-11-19T00:11:42.405Z,0.00
2017-11-19T00:12:42.363Z,0.00
2017-11-19T00:13:42.328Z,0.00
2017-11-19T00:14:42.278Z,0.00
2017-11-19T00:15:42.262Z,0.00
2017-11-19T00:16:42.205Z,0.00
2017-11-19T00:17:42.188Z,0.00
2017-11-19T00:18:42.137Z,0.00
2017-11-19T00:19:42.088Z,0.00
2017-11-19T00:20:42.039Z,0.00
2017-11-19T00:21:41.995Z,0.00
2017-11-19T00:22:41.974Z,0.00
2017-11-19T00:23:41.936Z,0.00
2017-11-19T00:24:41.877Z,0.00
2017-11-19T00:25:41.838Z,0.00
2017-11-19T00:26:41.790Z,0.00
2017-11-19T00:27:41.755Z,0.00
2017-11-19T00:28:41.730Z,0.00
2017-11-19T00:29:41.679Z,0.00
2017-11-19T00:30:41.639Z,0.00
2017-11-19T00:31:41.593Z,0.00
2017-11-19T00:32:41.551Z,0.00
2017-11-19T00:33:41.509Z,0.00
2017-11-19T00:34:41.465Z,0.00
2017-11-19T00:35:41.463Z,0.00
2017-11-19T00:36:41.393Z,0.00
2017-11-19T00:37:41.351Z,0.00
2017-11-19T00:38:41.299Z,0.00
2017-11-19T00:39:41.267Z,0.00
2017-11-19T00:40:41.226Z,0.00
2017-11-19T00:41:41.179Z,0.00
2017-11-19T00:42:41.137Z,0.00
2017-11-19T00:43:41.104Z,0.00
2017-11-19T00:44:41.061Z,0.00
2017-11-19T00:45:41.018Z,0.00
2017-11-19T00:46:40.977Z,0.00
2017-11-19T00:47:40.933Z,0.00
2017-11-19T00:48:40.902Z,0.00
2017-11-19T00:49:40.855Z,0.00
2017-11-19T00:50:40.822Z,0.00
2017-11-19T00:51:40.778Z,0.00
2017-11-19T00:52:40.730Z,0.00
2017-11-19T00:53:40.694Z,0.00
2017-11-19T00:54:40.656Z,0.00
2017-11-19T00:55:40.610Z,0.00
2017-11-19T00:56:40.567Z,0.00
2017-11-19T00:57:40.529Z,0.00
2017-11-19T00:58:40.490Z,0.00
2017-11-19T00:59:40.446Z,0.00
2017-11-19T01:00:40.406Z,0.00
2017-11-19T01:01:40.365Z,0.00
2017-11-19T01:02:40.324Z,0.00
2017-11-19T01:03:40.283Z,0.00
2017-11-19T01:04:40.240Z,0.00
2017-11-19T01:05:40.202Z,0.00
2017-11-19T01:06:40.172Z,0.00
2017-11-19T01:07:40.117Z,0.00
2017-11-19T01:08:40.088Z,0.00
2017-11-19T01:09:40.040Z,0.00
2017-11-19T01:10:39.999Z,0.00
2017-11-19T01:11:39.959Z,0.00
2017-11-19T01:12:39.935Z,0.00
2017-11-19T01:13:39.877Z,0.00
2017-11-19T01:14:39.843Z,0.00
2017-11-19T01:15:39.797Z,0.00
2017-11-19T01:16:39.756Z,0.00
2017-11-19T01:17:39.713Z,0.00
2017-11-19T01:18:39.674Z,0.00
2017-11-19T01:19:39.645Z,0.00
2017-11-19T01:20:39.600Z,0.00
2017-11-19T01:21:39.551Z,0.00
2017-11-19T01:22:39.506Z,0.00
2017-11-19T01:23:39.469Z,0.00
2017-11-19T01:24:39.427Z,0.00
2017-11-19T01:25:39.396Z,0.00
2017-11-19T01:26:39.343Z,0.00
2017-11-19T01:27:39.305Z,0.00
2017-11-19T01:28:39.271Z,0.00
2017-11-19T01:29:39.227Z,0.00
2017-11-19T01:30:39.179Z,0.00
2017-11-19T01:31:39.153Z,0.00
2017-11-19T01:32:39.097Z,0.00
2017-11-19T01:33:39.056Z,0.00
2017-11-19T01:34:39.021Z,0.00
2017-11-19T01:35:38.974Z,0.00
2017-11-19T01:36:38.938Z,0.00
2017-11-19T01:37:38.899Z,0.00
2017-11-19T01:38:38.865Z,0.00
2017-11-19T01:39:38.815Z,0.00
2017-11-19T01:40:38.769Z,0.00
2017-11-19T01:41:38.732Z,0.00
2017-11-19T01:42:38.685Z,0.00
2017-11-19T01:43:38.651Z,0.00
2017-11-19T01:44:38.613Z,0.00
2017-11-19T01:45:38.569Z,0.00
2017-11-19T01:46:38.524Z,0.00
2017-11-19T01:47:38.485Z,0.00
2017-11-19T01:48:38.441Z,0.00
2017-11-19T01:49:38.416Z,0.00
2017-11-19T01:50:38.360Z,0.00
2017-11-19T01:51:38.331Z,0.00
2017-11-19T01:52:38.279Z,0.00
2017-11-19T01:53:38.237Z,0.00
2017-11-19T01:54:38.201Z,0.00
2017-11-19T01:55:38.154Z,0.00
2017-11-19T01:56:38.115Z,0.00
2017-11-19T01:57:38.072Z,0.00
2017-11-19T01:58:38.033Z,0.00
2017-11-19T01:59:38.002Z,0.00
2017-11-19T02:00:37.951Z,0.00
2017-11-19T02:01:37.911Z,0.00
2017-11-19T02:02:37.880Z,0.00
2017-11-19T02:03:37.839Z,0.00
2017-11-19T02:04:37.797Z,0.00
2017-11-19T02:05:37.763Z,0.00
2017-11-19T02:06:37.706Z,0.00
2017-11-19T02:07:37.662Z,0.00
2017-11-19T02:08:37.622Z,0.00
2017-11-19T02:09:37.585Z,0.00
2017-11-19T02:10:37.539Z,0.00
2017-11-19T02:11:37.501Z,0.00
2017-11-19T02:12:37.458Z,0.00
2017-11-19T02:13:37.432Z,0.00
2017-11-19T02:14:37.380Z,0.00
2017-11-19T02:15:37.342Z,0.00
2017-11-19T02:16:37.297Z,0.00
2017-11-19T02:17:37.256Z,0.00
2017-11-19T02:18:37.213Z,0.00
2017-11-19T02:19:37.188Z,0.00
2017-11-19T02:20:37.127Z,0.00
2017-11-19T02:21:37.091Z,0.00
2017-11-19T02:22:37.055Z,0.00
2017-11-19T02:23:37.005Z,0.00
2017-11-19T02:24:36.975Z,0.00
2017-11-19T02:25:36.934Z,0.00
2017-11-19T02:26:36.891Z,0.00
2017-11-19T02:27:36.843Z,0.00
2017-11-19T02:28:36.806Z,0.00
2017-11-19T02:29:36.763Z,0.00
2017-11-19T02:30:36.720Z,0.00
2017-11-19T02:31:36.692Z,0.00
2017-11-19T02:32:36.649Z,0.00
2017-11-19T02:33:36.634Z,0.00
2017-11-19T02:34:36.568Z,0.00
2017-11-19T02:35:36.513Z,0.00
2017-11-19T02:36:36.529Z,0.00
2017-11-19T02:37:36.436Z,0.00
2017-11-19T02:38:36.394Z,0.00
2017-11-19T02:39:36.349Z,0.00
2017-11-19T02:40:36.318Z,0.00
2017-11-19T02:41:36.278Z,0.00
2017-11-19T02:42:36.224Z,0.00
2017-11-19T02:43:36.197Z,0.00
2017-11-19T02:44:36.157Z,0.00
2017-11-19T02:45:36.113Z,0.00
2017-11-19T02:46:36.067Z,0.00
2017-11-19T02:47:36.052Z,0.00
2017-11-19T02:48:35.986Z,0.00
2017-11-19T02:49:35.943Z,0.00
2017-11-19T02:50:35.895Z,0.00
2017-11-19T02:51:35.891Z,0.00
2017-11-19T02:52:35.816Z,0.00
2017-11-19T02:53:35.775Z,0.00
2017-11-19T02:54:35.736Z,0.00
2017-11-19T02:55:35.695Z,0.00
2017-11-19T02:56:35.653Z,0.00
2017-11-19T02:57:35.616Z,0.00
2017-11-19T02:58:35.570Z,0.00
2017-11-19T02:59:35.528Z,0.00
2017-11-19T03:00:35.492Z,0.00
2017-11-19T03:01:35.453Z,0.00
2017-11-19T03:02:35.475Z,0.00
2017-11-19T03:03:35.360Z,0.00
2017-11-19T03:04:35.322Z,0.00
2017-11-19T03:05:35.283Z,0.00
2017-11-19T03:06:35.246Z,0.00
2017-11-19T03:07:35.197Z,0.00
2017-11-19T03:08:35.158Z,0.00
2017-11-19T03:09:35.115Z,0.00
2017-11-19T03:10:35.072Z,0.00
2017-11-19T03:11:35.031Z,0.00
2017-11-19T03:12:34.997Z,0.00
2017-11-19T03:13:34.960Z,0.00
2017-11-19T03:14:34.952Z,0.00
2017-11-19T03:15:34.869Z,0.00
2017-11-19T03:16:34.836Z,0.00
2017-11-19T03:17:34.785Z,0.00
2017-11-19T03:18:34.747Z,0.00
2017-11-19T03:19:34.699Z,0.00
2017-11-19T03:20:34.660Z,0.00
2017-11-19T03:21:34.619Z,0.00
2017-11-19T03:22:34.581Z,0.00
2017-11-19T03:23:34.540Z,0.00
2017-11-19T03:24:34.498Z,0.00
2017-11-19T03:25:34.457Z,0.00
2017-11-19T03:26:34.418Z,0.00
2017-11-19T03:27:34.373Z,0.00
2017-11-19T03:28:34.335Z,0.00
2017-11-19T03:29:34.303Z,0.00
2017-11-19T03:30:34.270Z,0.00
2017-11-19T03:31:34.209Z,0.00
2017-11-19T03:32:34.168Z,0.00
2017-11-19T03:33:34.131Z,0.00
2017-11-19T03:34:34.098Z,0.00
2017-11-19T03:35:34.042Z,0.00
2017-11-19T03:36:34.004Z,0.00
2017-11-19T03:37:33.960Z,0.00
2017-11-19T03:38:33.919Z,0.00
2017-11-19T03:39:33.881Z,0.00
2017-11-19T03:40:33.835Z,0.00
2017-11-19T03:41:33.795Z,0.00
2017-11-19T03:42:33.757Z,0.00
2017-11-19T03:43:33.712Z,0.00
2017-11-19T03:44:33.672Z,0.00
2017-11-19T03:45:33.629Z,0.00
2017-11-19T03:46:33.589Z,0.00
2017-11-19T03:47:33.557Z,0.00
2017-11-19T03:48:33.507Z,0.00
2017-11-19T03:49:33.472Z,0.00
2017-11-19T03:50:33.432Z,0.00
2017-11-19T03:51:33.386Z,0.00
2017-11-19T03:52:33.340Z,0.00
2017-11-19T03:53:33.298Z,0.00
2017-11-19T03:54:33.258Z,0.00
2017-11-19T03:55:33.224Z,0.00
2017-11-19T03:56:33.179Z,0.00
2017-11-19T03:57:33.135Z,0.00
2017-11-19T03:58:33.094Z,0.00
2017-11-19T03:59:33.053Z,0.00
2017-11-19T04:00:33.012Z,0.00
2017-11-19T04:01:32.970Z,0.00
2017-11-19T04:02:32.925Z,0.00
2017-11-19T04:03:32.887Z,0.00
2017-11-19T04:04:32.850Z,0.00
2017-11-19T04:05:32.812Z,0.00
2017-11-19T04:06:32.766Z,0.00
2017-11-19T04:07:32.724Z,0.00
2017-11-19T04:08:32.681Z,0.00
2017-11-19T04:09:32.644Z,0.00
2017-11-19T04:10:32.604Z,0.00
2017-11-19T04:11:32.564Z,0.00
2017-11-19T04:12:32.520Z,0.00
2017-11-19T04:13:32.478Z,0.00
2017-11-19T04:14:32.433Z,0.00
2017-11-19T04:15:32.393Z,0.00
2017-11-19T04:16:32.352Z,0.00
2017-11-19T04:17:32.311Z,0.00
2017-11-19T04:18:32.273Z,0.00
2017-11-19T04:19:32.226Z,0.00
2017-11-19T04:20:32.187Z,0.00
2017-11-19T04:21:32.150Z,0.00
2017-11-19T04:22:32.111Z,0.00
2017-11-19T04:23:32.064Z,0.00
2017-11-19T04:24:32.022Z,0.00
2017-11-19T04:25:31.989Z,0.00
2017-11-19T04:26:31.939Z,0.00
2017-11-19T04:27:31.898Z,0.00
2017-11-19T04:28:31.860Z,0.00
2017-11-19T04:29:31.817Z,0.00
2017-11-19T04:30:31.773Z,0.00
2017-11-19T04:31:31.734Z,0.00
2017-11-19T04:32:31.691Z,0.00
2017-11-19T04:33:31.648Z,0.00
2017-11-19T04:34:31.607Z,0.00
2017-11-19T04:35:31.566Z,0.00
2017-11-19T04:36:31.524Z,0.00
2017-11-19T04:37:31.492Z,0.00
2017-11-19T04:38:31.450Z,0.00
2017-11-19T04:39:31.408Z,0.00
2017-11-19T04:40:31.362Z,0.00
2017-11-19T04:41:31.321Z,0.00
2017-11-19T04:42:31.282Z,0.00
2017-11-19T04:43:31.237Z,0.00
2017-11-19T04:44:31.198Z,0.00
2017-11-19T04:45:31.157Z,0.00
2017-11-19T04:46:31.115Z,0.00
2017-11-19T04:47:31.072Z,0.00
2017-11-19T04:48:31.037Z,0.00
2017-11-19T04:49:30.992Z,0.00
2017-11-19T04:50:30.947Z,0.00
2017-11-19T04:51:30.916Z,0.00
2017-11-19T04:52:30.866Z,0.00
2017-11-19T04:53:30.822Z,0.00
2017-11-19T04:54:30.782Z,0.00
2017-11-19T04:55:30.744Z,0.00
2017-11-19T04:56:30.708Z,0.00
2017-11-19T04:57:30.657Z,0.00
2017-11-19T04:58:30.616Z,0.00
2017-11-19T04:59:30.572Z,0.00
2017-11-19T05:00:30.574Z,0.00
2017-11-19T05:01:30.505Z,0.00
2017-11-19T05:02:30.456Z,0.00
2017-11-19T05:03:30.411Z,0.00
2017-11-19T05:04:30.397Z,0.00
2017-11-19T05:05:30.335Z,0.00
2017-11-19T05:06:30.284Z,0.00
2017-11-19T05:07:30.242Z,0.00
2017-11-19T05:08:30.201Z,0.00
2017-11-19T05:09:30.170Z,0.00
2017-11-19T05:10:30.119Z,0.00
2017-11-19T05:11:30.093Z,0.00
2017-11-19T05:12:30.052Z,0.00
2017-11-19T05:13:30.009Z,0.00
2017-11-19T05:14:29.959Z,0.00
2017-11-19T05:15:29.914Z,0.00
2017-11-19T05:16:29.885Z,0.00
2017-11-19T05:17:29.831Z,0.00
2017-11-19T05:18:29.795Z,0.00
2017-11-19T05:19:29.757Z,0.00
2017-11-19T05:20:29.713Z,0.00
2017-11-19T05:21:29.665Z,0.00
2017-11-19T05:22:29.634Z,0.00
2017-11-19T05:23:29.593Z,0.00
2017-11-19T05:24:29.540Z,0.00
2017-11-19T05:25:29.502Z,0.00
2017-11-19T05:26:29.456Z,0.00
2017-11-19T05:27:29.417Z,0.00
2017-11-19T05:28:29.377Z,0.00
2017-11-19T05:29:29.339Z,0.00
2017-11-19T05:30:29.297Z,0.00
2017-11-19T05:31:29.250Z,0.00
2017-11-19T05:32:29.219Z,0.00
2017-11-19T05:33:29.183Z,0.00
2017-11-19T05:34:29.125Z,0.00
2017-11-19T05:35:29.087Z,0.00
2017-11-19T05:36:29.045Z,0.00
2017-11-19T05:37:29.014Z,0.00
2017-11-19T05:38:28.960Z,0.00
2017-11-19T05:39:28.920Z,0.00
2017-11-19T05:40:28.884Z,0.00
2017-11-19T05:41:28.840Z,0.00
2017-11-19T05:42:28.798Z,0.00
2017-11-19T05:43:28.755Z,0.00
2017-11-19T05:44:28.713Z,0.00
2017-11-19T05:45:28.681Z,0.00
2017-11-19T05:46:28.637Z,0.00
2017-11-19T05:47:28.597Z,0.00
2017-11-19T05:48:28.548Z,0.00
2017-11-19T05:49:28.509Z,0.00
2017-11-19T05:50:28.466Z,0.00
2017-11-19T05:51:28.424Z,0.00
2017-11-19T05:52:28.389Z,0.00
2017-11-19T05:53:28.340Z,0.00
2017-11-19T05:54:28.301Z,0.00
2017-11-19T05:55:28.261Z,0.00
2017-11-19T05:56:28.216Z,0.00
2017-11-19T05:57:28.176Z,0.00
2017-11-19T05:58:28.138Z,0.00
2017-11-19T05:59:28.091Z,0.00
2017-11-19T06:00:28.050Z,0.00
2017-11-19T06:01:28.019Z,0.00
2017-11-19T06:02:27.980Z,0.00
2017-11-19T06:03:27.929Z,0.00
2017-11-19T06:04:27.892Z,0.00
2017-11-19T06:05:27.847Z,0.00
2017-11-19T06:06:27.803Z,0.00
2017-11-19T06:07:27.762Z,0.00
2017-11-19T06:08:27.721Z,0.00
2017-11-19T06:09:27.689Z,0.00
2017-11-19T06:10:27.645Z,0.00
2017-11-19T06:11:27.601Z,0.00
2017-11-19T06:12:27.560Z,0.00
2017-11-19T06:13:27.520Z,0.00
2017-11-19T06:14:27.475Z,0.00
2017-11-19T06:15:27.433Z,0.00
2017-11-19T06:16:27.390Z,0.00
2017-11-19T06:17:27.350Z,0.00
2017-11-19T06:18:27.317Z,0.00
2017-11-19T06:19:27.278Z,0.00
2017-11-19T06:20:27.228Z,0.00
2017-11-19T06:21:27.189Z,0.00
2017-11-19T06:22:27.143Z,0.00
2017-11-19T06:23:27.107Z,0.00
2017-11-19T06:24:27.096Z,0.00
2017-11-19T06:25:27.018Z,0.00
2017-11-19T06:26:26.982Z,0.00
2017-11-19T06:27:26.938Z,5.63
2017-11-19T06:28:26.897Z,5.63
2017-11-19T06:29:26.862Z,5.63
2017-11-19T06:30:26.814Z,5.63
2017-11-19T06:31:26.780Z,5.63
2017-11-19T06:32:26.751Z,5.63
2017-11-19T06:33:26.692Z,5.63
2017-11-19T06:34:26.646Z,5.63
2017-11-19T06:35:26.611Z,5.63
2017-11-19T06:36:26.573Z,5.63
2017-11-19T06:37:26.537Z,5.63
2017-11-19T06:38:26.518Z,5.63
2017-11-19T06:39:26.449Z,5.63
2017-11-19T06:40:26.405Z,5.63
2017-11-19T06:41:26.359Z,5.63
2017-11-19T06:42:26.325Z,5.63
2017-11-19T06:43:26.281Z,11.25
2017-11-19T06:44:26.239Z,11.25
2017-11-19T06:45:26.196Z,11.25
2017-11-19T06:46:26.162Z,11.25
2017-11-19T06:47:26.112Z,11.25
2017-11-19T06:48:26.078Z,11.25
2017-11-19T06:49:26.031Z,11.25
2017-11-19T06:50:25.988Z,11.25
2017-11-19T06:51:25.948Z,11.25
2017-11-19T06:52:25.913Z,11.25
2017-11-19T06:53:25.872Z,16.88
2017-11-19T06:54:25.825Z,16.88
2017-11-19T06:55:25.787Z,16.88
2017-11-19T06:56:25.744Z,16.88
2017-11-19T06:57:25.702Z,22.50
2017-11-19T06:58:25.669Z,28.13
2017-11-19T06:59:25.632Z,28.13
2017-11-19T07:00:25.579Z,33.75
2017-11-19T07:01:25.545Z,33.75
2017-11-19T07:02:25.506Z,33.75
2017-11-19T07:03:25.453Z,33.75
2017-11-19T07:04:25.416Z,39.38
2017-11-19T07:05:25.376Z,39.38
2017-11-19T07:06:25.340Z,33.75
2017-11-19T07:07:25.297Z,33.75
2017-11-19T07:08:25.261Z,28.13
2017-11-19T07:09:25.210Z,28.13
2017-11-19T07:10:25.175Z,28.13
2017-11-19T07:11:25.129Z,28.13
2017-11-19T07:12:25.090Z,28.13
2017-11-19T07:13:25.049Z,22.50
2017-11-19T07:14:25.005Z,22.50
2017-11-19T07:15:24.970Z,22.50
2017-11-19T07:16:24.928Z,28.13
2017-11-19T07:17:24.883Z,33.75
2017-11-19T07:18:24.842Z,45.00
2017-11-19T07:19:24.799Z,50.63
2017-11-19T07:20:24.761Z,45.00
2017-11-19T07:21:24.719Z,45.00
2017-11-19T07:22:24.681Z,39.38
2017-11-19T07:23:24.644Z,45.00
2017-11-19T07:24:24.595Z,39.38
2017-11-19T07:25:24.579Z,45.00
2017-11-19T07:26:24.513Z,45.00
2017-11-19T07:27:24.474Z,50.63
2017-11-19T07:28:24.451Z,45.00
2017-11-19T07:29:24.392Z,50.63
2017-11-19T07:30:24.364Z,61.88
2017-11-19T07:31:24.318Z,61.88
2017-11-19T07:32:24.271Z,61.88
2017-11-19T07:33:24.247Z,73.13
2017-11-19T07:34:24.202Z,84.38
2017-11-19T07:35:24.154Z,101.25
2017-11-19T07:36:24.114Z,101.25
2017-11-19T07:37:24.095Z,84.38
2017-11-19T07:38:24.035Z,95.63
2017-11-19T07:39:23.990Z,118.13
2017-11-19T07:40:23.945Z,129.38
2017-11-19T07:41:23.910Z,135.00
2017-11-19T07:42:23.862Z,135.00
2017-11-19T07:43:23.839Z,129.38
2017-11-19T07:44:23.781Z,135.00
2017-11-19T07:45:23.748Z,123.75
2017-11-19T07:46:23.709Z,118.13
2017-11-19T07:47:23.667Z,118.13
2017-11-19T07:48:23.631Z,129.38
2017-11-19T07:49:23.592Z,146.25
2017-11-19T07:50:23.545Z,146.25
2017-11-19T07:51:23.515Z,123.75
2017-11-19T07:52:23.469Z,106.88
2017-11-19T07:53:23.853Z,101.25
2017-11-19T07:54:23.400Z,101.25
2017-11-19T07:55:23.336Z,106.88
2017-11-19T07:56:23.297Z,118.13
2017-11-19T07:57:23.251Z,135.00
2017-11-19T07:58:23.236Z,157.50
2017-11-19T07:59:23.246Z,168.75
2017-11-19T08:00:23.130Z,135.00
2017-11-19T08:01:23.088Z,129.38
2017-11-19T08:02:23.055Z,135.00
2017-11-19T08:03:23.015Z,146.25
2017-11-19T08:04:22.976Z,146.25
2017-11-19T08:05:22.930Z,146.25
2017-11-19T08:06:22.885Z,163.13
2017-11-19T08:07:22.847Z,163.13
2017-11-19T08:08:22.806Z,174.38
2017-11-19T08:09:22.769Z,219.38
2017-11-19T08:10:22.726Z,270.00
2017-11-19T08:11:22.686Z,241.88
2017-11-19T08:12:22.645Z,202.50
2017-11-19T08:13:22.605Z,191.25
2017-11-19T08:14:22.564Z,163.13
2017-11-19T08:15:22.538Z,140.63
2017-11-19T08:16:22.488Z,140.63
2017-11-19T08:17:22.450Z,135.00
2017-11-19T08:18:22.404Z,140.63
2017-11-19T08:19:22.362Z,129.38
2017-11-19T08:20:22.327Z,135.00
2017-11-19T08:21:22.290Z,118.13
2017-11-19T08:22:22.245Z,118.13
2017-11-19T08:23:22.206Z,135.00
2017-11-19T08:24:22.158Z,135.00
2017-11-19T08:25:22.122Z,140.63
2017-11-19T08:26:22.079Z,129.38
2017-11-19T08:27:22.041Z,135.00
2017-11-19T08:28:22.009Z,168.75
2017-11-19T08:29:21.961Z,168.75
2017-11-19T08:30:21.922Z,163.13
2017-11-19T08:31:21.879Z,157.50
2017-11-19T08:32:21.855Z,151.88
2017-11-19T08:33:21.814Z,129.38
2017-11-19T08:34:21.778Z,95.63
2017-11-19T08:35:21.720Z,84.38
2017-11-19T08:36:21.684Z,90.00
2017-11-19T08:37:21.639Z,118.13
2017-11-19T08:38:21.597Z,151.88
2017-11-19T08:39:21.560Z,151.88
2017-11-19T08:40:21.524Z,140.63
2017-11-19T08:41:21.484Z,157.50
2017-11-19T08:42:21.439Z,168.75
2017-11-19T08:43:21.402Z,180.00
2017-11-19T08:44:21.366Z,191.25
2017-11-19T08:45:21.322Z,185.63
2017-11-19T08:46:21.283Z,185.63
2017-11-19T08:47:21.242Z,191.25
2017-11-19T08:48:21.200Z,196.88
2017-11-19T08:49:21.162Z,185.63
2017-11-19T08:50:21.116Z,180.00
2017-11-19T08:51:21.077Z,157.50
2017-11-19T08:52:21.036Z,146.25
2017-11-19T08:53:20.998Z,151.88
2017-11-19T08:54:20.958Z,151.88
2017-11-19T08:55:20.919Z,163.13
2017-11-19T08:56:20.879Z,168.75
2017-11-19T08:57:20.841Z,157.50
2017-11-19T08:58:20.796Z,174.38
2017-11-19T08:59:20.761Z,157.50
2017-11-19T09:00:20.718Z,151.88
2017-11-19T09:01:20.676Z,157.50
2017-11-19T09:02:20.635Z,151.88
2017-11-19T09:03:20.604Z,129.38
2017-11-19T09:04:20.560Z,106.88
2017-11-19T09:05:20.525Z,101.25
2017-11-19T09:06:20.478Z,95.63
2017-11-19T09:07:20.441Z,95.63
2017-11-19T09:08:20.401Z,90.00
2017-11-19T09:09:20.380Z,90.00
2017-11-19T09:10:20.322Z,90.00
2017-11-19T09:11:20.279Z,95.63
2017-11-19T09:12:20.244Z,106.88
2017-11-19T09:13:20.217Z,106.88
2017-11-19T09:14:20.177Z,101.25
2017-11-19T09:15:20.127Z,101.25
2017-11-19T09:16:20.084Z,106.88
2017-11-19T09:17:20.037Z,112.50
2017-11-19T09:18:19.995Z,129.38
2017-11-19T09:19:19.958Z,123.75
2017-11-19T09:20:19.920Z,118.13
2017-11-19T09:21:19.881Z,106.88
2017-11-19T09:22:19.835Z,112.50
2017-11-19T09:23:19.798Z,95.63
2017-11-19T09:24:19.762Z,95.63
2017-11-19T09:25:19.719Z,106.88
2017-11-19T09:26:19.673Z,95.63
2017-11-19T09:27:19.643Z,90.00
2017-11-19T09:28:19.597Z,90.00
2017-11-19T09:29:19.563Z,95.63
2017-11-19T09:30:19.516Z,106.88
2017-11-19T09:31:19.474Z,95.63
2017-11-19T09:32:19.445Z,90.00
2017-11-19T09:33:19.391Z,95.63
2017-11-19T09:34:19.374Z,90.00
2017-11-19T09:35:19.311Z,90.00
2017-11-19T09:36:19.275Z,78.75
2017-11-19T09:37:19.261Z,84.38
2017-11-19T09:38:19.200Z,78.75
2017-11-19T09:39:19.160Z,73.13
2017-11-19T09:40:19.118Z,67.50
2017-11-19T09:41:19.072Z,56.25
2017-11-19T09:42:19.032Z,61.88
2017-11-19T09:43:19.009Z,67.50
2017-11-19T09:44:18.959Z,78.75
2017-11-19T09:45:18.914Z,95.63
2017-11-19T09:46:18.873Z,118.13
2017-11-19T09:47:18.832Z,146.25
2017-11-19T09:48:18.794Z,151.88
2017-11-19T09:49:18.748Z,129.38
2017-11-19T09:50:18.715Z,123.75
2017-11-19T09:51:18.677Z,106.88
2017-11-19T09:52:18.652Z,101.25
2017-11-19T09:53:18.596Z,95.63
2017-11-19T09:54:18.547Z,106.88
2017-11-19T09:55:18.512Z,118.13
2017-11-19T09:56:18.470Z,129.38
2017-11-19T09:57:18.466Z,123.75
2017-11-19T09:58:18.388Z,112.50
2017-11-19T09:59:18.356Z,106.88
2017-11-19T10:00:18.337Z,101.25
2017-11-19T10:01:18.278Z,90.00
2017-11-19T10:02:18.225Z,90.00
2017-11-19T10:03:18.200Z,84.38
2017-11-19T10:04:18.154Z,84.38
2017-11-19T10:05:18.122Z,84.38
2017-11-19T10:06:18.075Z,73.13
2017-11-19T10:07:18.039Z,67.50
2017-11-19T10:08:17.993Z,56.25
2017-11-19T10:09:18.010Z,61.88
2017-11-19T10:10:17.951Z,61.88
2017-11-19T10:11:17.872Z,56.25
2017-11-19T10:12:17.837Z,56.25
2017-11-19T10:13:17.806Z,61.88
2017-11-19T10:14:17.765Z,61.88
2017-11-19T10:15:17.730Z,73.13
2017-11-19T10:16:17.683Z,84.38
2017-11-19T10:17:17.636Z,95.63
2017-11-19T10:18:17.591Z,112.50
2017-11-19T10:19:17.555Z,129.38
2017-11-19T10:20:17.509Z,157.50
2017-11-19T10:21:17.480Z,185.63
2017-11-19T10:22:17.467Z,185.63
2017-11-19T10:23:17.386Z,180.00
2017-11-19T10:24:18.283Z,163.13
2017-11-19T10:25:17.312Z,157.50
2017-11-19T10:26:17.262Z,151.88
2017-11-19T10:27:17.236Z,157.50
2017-11-19T10:28:17.235Z,174.38
2017-11-19T10:29:17.154Z,157.50
2017-11-19T10:30:17.126Z,174.38
2017-11-19T10:31:17.065Z,174.38
2017-11-19T10:32:17.027Z,174.38
2017-11-19T10:33:17.001Z,174.38
2017-11-19T10:34:16.952Z,168.75
2017-11-19T10:35:16.904Z,185.63
2017-11-19T10:36:16.869Z,180.00
2017-11-19T10:37:16.823Z,202.50
2017-11-19T10:38:16.797Z,202.50
2017-11-19T10:39:16.742Z,208.13
2017-11-19T10:40:16.703Z,219.38
2017-11-19T10:41:16.679Z,225.00
2017-11-19T10:42:16.633Z,219.38
2017-11-19T10:43:16.581Z,213.75
2017-11-19T10:44:16.546Z,191.25
2017-11-19T10:45:16.504Z,174.38
2017-11-19T10:46:16.465Z,168.75
2017-11-19T10:47:16.431Z,174.38
2017-11-19T10:48:16.381Z,174.38
2017-11-19T10:49:16.345Z,157.50
2017-11-19T10:50:16.308Z,157.50
2017-11-19T10:51:16.274Z,163.13
2017-11-19T10:52:16.227Z,163.13
2017-11-19T10:53:16.190Z,157.50
2017-11-19T10:54:16.146Z,163.13
2017-11-19T10:55:16.114Z,174.38
2017-11-19T10:56:16.063Z,174.38
2017-11-19T10:57:16.028Z,185.63
2017-11-19T10:58:15.979Z,185.63
2017-11-19T10:59:15.954Z,151.88
2017-11-19T11:00:15.906Z,140.63
2017-11-19T11:01:15.875Z,135.00
2017-11-19T11:02:15.819Z,135.00
2017-11-19T11:03:15.790Z,135.00
2017-11-19T11:04:15.775Z,129.38
2017-11-19T11:05:15.706Z,135.00
2017-11-19T11:06:15.659Z,135.00
2017-11-19T11:07:15.623Z,112.50
2017-11-19T11:08:15.585Z,118.13
2017-11-19T11:09:15.538Z,106.88
2017-11-19T11:10:15.501Z,118.13
2017-11-19T11:11:15.491Z,95.63
2017-11-19T11:12:15.422Z,101.25
2017-11-19T11:13:15.381Z,123.75
2017-11-19T11:14:15.361Z,140.63
2017-11-19T11:15:15.317Z,112.50
2017-11-19T11:16:15.274Z,123.75
2017-11-19T11:17:15.231Z,163.13
2017-11-19T11:18:15.206Z,163.13
2017-11-19T11:19:15.140Z,151.88
2017-11-19T11:20:15.124Z,123.75
2017-11-19T11:21:15.072Z,129.38
2017-11-19T11:22:15.026Z,135.00
2017-11-19T11:23:14.997Z,163.13
2017-11-19T11:24:14.942Z,202.50
2017-11-19T11:25:14.903Z,225.00
2017-11-19T11:26:14.859Z,258.75
2017-11-19T11:27:14.841Z,258.75
2017-11-19T11:28:14.815Z,275.63
2017-11-19T11:29:14.751Z,315.00
2017-11-19T11:30:14.712Z,371.25
2017-11-19T11:31:14.678Z,270.00
2017-11-19T11:32:14.620Z,196.88
2017-11-19T11:33:14.589Z,180.00
2017-11-19T11:34:14.539Z,168.75
2017-11-19T11:35:14.504Z,174.38
2017-11-19T11:36:14.464Z,180.00
2017-11-19T11:37:14.421Z,236.25
2017-11-19T11:38:14.385Z,281.25
2017-11-19T11:39:14.353Z,303.75
2017-11-19T11:40:14.336Z,286.88
2017-11-19T11:41:14.270Z,315.00
2017-11-19T11:42:14.220Z,303.75
2017-11-19T11:43:14.194Z,236.25
2017-11-19T11:44:14.174Z,146.25
2017-11-19T11:45:14.105Z,123.75
2017-11-19T11:46:14.063Z,118.13
2017-11-19T11:47:14.048Z,135.00
2017-11-19T11:48:13.990Z,123.75
2017-11-19T11:49:13.945Z,129.38
2017-11-19T11:50:13.902Z,157.50
2017-11-19T11:51:13.874Z,213.75
2017-11-19T11:52:13.827Z,298.13
2017-11-19T11:53:13.790Z,270.00
2017-11-19T11:54:13.757Z,163.13
2017-11-19T11:55:13.714Z,123.75
2017-11-19T11:56:13.668Z,112.50
2017-11-19T11:57:13.629Z,112.50
2017-11-19T11:58:13.587Z,129.38
2017-11-19T11:59:13.575Z,118.13
2017-11-19T12:00:13.525Z,123.75
2017-11-19T12:01:13.472Z,146.25
2017-11-19T12:02:13.437Z,168.75
2017-11-19T12:03:13.401Z,151.88
2017-11-19T12:04:13.359Z,140.63
2017-11-19T12:05:13.317Z,168.75
2017-11-19T12:06:13.271Z,191.25
2017-11-19T12:07:13.233Z,191.25
2017-11-19T12:08:13.208Z,236.25
2017-11-19T12:09:13.158Z,275.63
2017-11-19T12:10:13.115Z,281.25
2017-11-19T12:11:13.070Z,258.75
2017-11-19T12:12:13.038Z,219.38
2017-11-19T12:13:12.997Z,163.13
2017-11-19T12:14:12.962Z,151.88
2017-11-19T12:15:12.912Z,140.63
2017-11-19T12:16:12.880Z,129.38
2017-11-19T12:17:12.834Z,101.25
2017-11-19T12:18:12.798Z,78.75
2017-11-19T12:19:12.767Z,78.75
2017-11-19T12:20:12.724Z,73.13
2017-11-19T12:21:12.687Z,67.50
2017-11-19T12:22:12.640Z,67.50
2017-11-19T12:23:12.608Z,73.13
2017-11-19T12:24:12.561Z,67.50
2017-11-19T12:25:12.530Z,73.13
2017-11-19T12:26:12.474Z,78.75
2017-11-19T12:27:12.440Z,73.13
2017-11-19T12:28:12.396Z,67.50
2017-11-19T12:29:12.375Z,56.25
2017-11-19T12:30:12.337Z,61.88
2017-11-19T12:31:12.279Z,84.38
2017-11-19T12:32:12.274Z,112.50
2017-11-19T12:33:12.227Z,123.75
2017-11-19T12:34:12.182Z,101.25
2017-11-19T12:35:12.126Z,112.50
2017-11-19T12:36:12.106Z,118.13
2017-11-19T12:37:12.038Z,146.25
2017-11-19T12:38:12.007Z,163.13
2017-11-19T12:39:11.955Z,135.00
2017-11-19T12:40:11.920Z,146.25
2017-11-19T12:41:11.872Z,163.13
2017-11-19T12:42:11.843Z,185.63
2017-11-19T12:43:11.800Z,213.75
2017-11-19T12:44:11.765Z,174.38
2017-11-19T12:45:11.740Z,151.88
2017-11-19T12:46:11.714Z,129.38
2017-11-19T12:47:11.688Z,101.25
2017-11-19T12:48:11.595Z,95.63
2017-11-19T12:49:11.577Z,95.63
2017-11-19T12:50:11.547Z,112.50
2017-11-19T12:51:11.542Z,129.38
2017-11-19T12:52:11.453Z,95.63
2017-11-19T12:53:11.398Z,78.75
2017-11-19T12:54:11.352Z,84.38
2017-11-19T12:55:11.307Z,95.63
2017-11-19T12:56:11.279Z,101.25
2017-11-19T12:57:11.231Z,95.63